Time;durP1;ratioP1;P1;durP2;ratioP2;P2;SDS_P1;SDS_P2;PMS_P1;PMS_P2;Temp;Humidity;BMP_temperature;BMP_pressure;BME280_temperature;BME280_humidity;BME280_pressure;Samples;Min_cycle;Max_cycle;Signal;HPM_P1;HPM_P2
2021/12/23 00:01:46;;;;;;;12.20;6.93;;;;;;;-9.87;88.84;100942.95;1726845;82;21103;-78
2021/12/23 00:04:12;;;;;;;15.80;7.53;;;;;;;-9.89;89.58;100945.44;1728423;82;21582;-76
2021/12/23 00:06:41;;;;;;;11.77;5.97;;;;;;;-9.89;89.59;100947.08;1732049;81;20996;-77
2021/12/23 00:09:07;;;;;;;11.90;5.90;;;;;;;-9.92;89.96;100943.56;1737752;82;22207;-77
2021/12/23 00:11:34;;;;;;;14.00;5.67;;;;;;;-9.92;90.13;100949.06;1744107;82;21121;-76
2021/12/23 00:14:07;;;;;;;11.03;5.60;;;;;;;-9.95;89.94;100952.31;1745749;82;21052;-76
2021/12/23 00:24:39;;;;;;;23.93;8.50;;;;;;;-10.03;90.29;100976.48;1745490;82;21241;-78
2021/12/23 00:27:07;;;;;;;29.20;8.60;;;;;;;-10.06;90.23;100975.01;1717614;83;21077;-77
2021/12/23 00:29:34;;;;;;;38.63;12.20;;;;;;;-10.08;90.54;100975.31;1717594;83;21065;-79
2021/12/23 00:32:05;;;;;;;17.07;6.97;;;;;;;-10.08;90.79;100979.13;1717799;83;21010;-78
2021/12/23 00:34:29;;;;;;;16.70;7.93;;;;;;;-10.11;90.95;100982.78;1680328;85;21037;-79
2021/12/23 00:36:58;;;;;;;18.77;7.73;;;;;;;-10.13;90.93;100974.16;1717860;82;21762;-80
2021/12/23 00:39:26;;;;;;;13.60;6.97;;;;;;;-10.14;91.17;100982.61;1677819;83;21622;-78
2021/12/23 00:41:54;;;;;;;21.70;7.53;;;;;;;-10.13;91.10;100979.26;1655414;86;21145;-77
2021/12/23 00:44:22;;;;;;;14.47;6.67;;;;;;;-10.14;90.93;100979.66;1655470;86;21070;-78
2021/12/23 00:46:48;;;;;;;14.67;5.83;;;;;;;-10.13;90.63;100989.05;1655348;86;21061;-75
2021/12/23 00:49:16;;;;;;;11.70;6.13;;;;;;;-10.16;90.22;100976.14;1655111;86;21158;-75
2021/12/23 00:51:43;;;;;;;9.90;5.77;;;;;;;-10.17;89.82;100983.68;1655218;86;21090;-76
2021/12/23 00:54:09;;;;;;;10.20;5.53;;;;;;;-10.18;89.49;100981.94;1655217;86;21193;-75
2021/12/23 00:56:37;;;;;;;13.43;6.60;;;;;;;-10.20;89.20;100980.96;1655155;86;21544;-76
2021/12/23 00:59:06;;;;;;;11.10;5.83;;;;;;;-10.21;89.12;100982.63;1686785;83;21065;-77
2021/12/23 01:01:33;;;;;;;12.93;6.97;;;;;;;-10.22;89.09;100977.44;1721902;82;21118;-75
2021/12/23 01:04:00;;;;;;;10.37;5.87;;;;;;;-10.23;89.08;100978.23;1748446;82;21753;-75
2021/12/23 01:06:27;;;;;;;16.43;6.67;;;;;;;-10.23;88.96;100981.66;1748557;82;21084;-75
2021/12/23 01:08:53;;;;;;;12.33;6.00;;;;;;;-10.22;88.84;100982.53;1746824;80;21088;-73
2021/12/23 01:11:20;;;;;;;11.17;5.40;;;;;;;-10.23;88.91;100980.79;1742342;82;21026;-73
2021/12/23 01:14:00;;;;;;;8.17;4.73;;;;;;;-10.26;88.13;100983.13;1742010;82;21853;-75
2021/12/23 01:16:26;;;;;;;9.97;5.73;;;;;;;-10.29;88.22;100978.77;1741874;82;21153;-74
2021/12/23 01:18:46;;;;;;;10.00;5.17;;;;;;;-10.30;88.44;100974.48;1742776;82;21081;-76
2021/12/23 01:21:16;;;;;;;10.60;4.80;;;;;;;-10.30;87.87;100974.88;1743761;82;21074;-76
2021/12/23 01:23:53;;;;;;;10.32;5.80;;;;;;;-10.35;87.25;100970.38;1742790;82;21041;-75
2021/12/23 01:26:22;;;;;;;11.17;6.27;;;;;;;-10.33;87.57;100979.77;1741621;82;21142;-75
2021/12/23 01:28:53;;;;;;;11.63;5.37;;;;;;;-10.33;87.13;100983.59;1742438;82;21022;-75
2021/12/23 01:31:21;;;;;;;12.40;6.33;;;;;;;-10.35;86.79;100983.52;1741512;82;21124;-75
2021/12/23 01:33:48;;;;;;;11.53;5.90;;;;;;;-10.36;86.31;100974.09;1742471;82;21080;-75
2021/12/23 01:36:14;;;;;;;12.30;5.60;;;;;;;-10.39;85.89;100979.02;1741659;80;21124;-75
2021/12/23 01:38:40;;;;;;;13.80;5.63;;;;;;;-10.39;86.17;100975.20;1742122;82;21103;-74
2021/12/23 01:41:09;;;;;;;14.83;7.90;;;;;;;-10.40;85.67;100979.42;1741617;82;21081;-75
2021/12/23 01:43:35;;;;;;;14.40;6.70;;;;;;;-10.41;85.11;100978.91;1741963;82;21077;-75
2021/12/23 01:46:02;;;;;;;10.27;5.40;;;;;;;-10.45;84.74;100976.09;1741793;82;21065;-75
2021/12/23 01:48:30;;;;;;;13.23;5.97;;;;;;;-10.46;84.64;100976.48;1741864;82;21096;-76
2021/12/23 01:50:56;;;;;;;14.47;6.30;;;;;;;-10.49;84.28;100975.04;1741974;82;21141;-75
2021/12/23 01:53:23;;;;;;;12.10;6.00;;;;;;;-10.49;84.19;100975.04;1742208;82;21041;-75
2021/12/23 01:55:49;;;;;;;9.77;5.03;;;;;;;-10.51;83.53;100986.80;1731153;82;21626;-75
2021/12/23 01:58:18;;;;;;;9.73;5.53;;;;;;;-10.54;83.62;100988.26;1725314;82;21081;-75
2021/12/23 02:00:49;;;;;;;12.10;5.77;;;;;;;-10.56;83.56;100991.97;1732485;82;21071;-77
2021/12/23 02:03:15;;;;;;;14.00;5.63;;;;;;;-10.58;83.43;100994.81;1706097;84;21206;-76
2021/12/23 02:05:43;;;;;;;13.03;5.73;;;;;;;-10.60;83.45;100994.74;1706455;84;21047;-76
2021/12/23 02:08:10;;;;;;;12.03;5.50;;;;;;;-10.62;83.42;100991.22;1706037;83;21459;-76
2021/12/23 02:10:40;;;;;;;10.47;4.93;;;;;;;-10.62;83.40;100991.62;1712516;83;21027;-76
2021/12/23 02:13:06;;;;;;;8.47;5.40;;;;;;;-10.64;82.79;100991.91;1713631;83;21125;-78
2021/12/23 02:15:35;;;;;;;9.17;5.17;;;;;;;-10.70;82.81;100989.85;1713935;83;21004;-76
2021/12/23 02:18:02;;;;;;;9.70;5.50;;;;;;;-10.74;82.46;100994.66;1713924;83;21059;-75
2021/12/23 02:20:32;;;;;;;12.67;5.17;;;;;;;-10.75;83.66;100995.05;1713539;83;21003;-77
2021/12/23 02:22:59;;;;;;;10.28;5.12;;;;;;;-10.79;83.29;100996.91;1713652;83;21130;-76
2021/12/23 02:25:25;;;;;;;10.63;5.80;;;;;;;-10.85;83.15;100986.37;1714054;83;21040;-76
2021/12/23 02:27:53;;;;;;;9.87;5.93;;;;;;;-10.85;83.45;100993.61;1713708;83;21139;-77
2021/12/23 02:30:24;;;;;;;8.97;5.57;;;;;;;-10.91;83.18;100991.94;1713980;83;21832;-77
2021/12/23 02:32:51;;;;;;;10.20;5.70;;;;;;;-10.98;82.89;100997.44;1713213;82;21138;-78
2021/12/23 02:35:20;;;;;;;14.23;6.40;;;;;;;-11.03;83.04;100995.88;1713852;83;21542;-77
2021/12/23 02:37:47;;;;;;;12.27;5.40;;;;;;;-11.07;83.16;100995.58;1713971;82;21107;-76
2021/12/23 02:40:27;;;;;;;14.80;7.63;;;;;;;-11.11;83.35;100997.44;1714007;83;21524;-75
2021/12/23 02:42:56;;;;;;;12.95;6.08;;;;;;;-11.15;83.31;100995.51;1713818;83;21094;-73
2021/12/23 02:45:22;;;;;;;13.33;6.33;;;;;;;-11.24;83.23;100987.77;1714245;83;21644;-75
2021/12/23 02:47:49;;;;;;;13.23;6.37;;;;;;;-11.30;83.14;100995.39;1714018;83;21015;-72
2021/12/23 02:50:15;;;;;;;14.17;6.87;;;;;;;-11.34;83.65;100993.06;1713597;83;21047;-73
2021/12/23 02:52:42;;;;;;;18.53;7.20;;;;;;;-11.37;84.24;100995.38;1715364;82;21203;-74
2021/12/23 02:55:09;;;;;;;12.80;6.57;;;;;;;-11.43;83.90;101003.91;1720196;83;21169;-74
2021/12/23 02:57:35;;;;;;;15.70;6.93;;;;;;;-11.50;83.82;100999.17;1720013;83;21082;-74
2021/12/23 03:00:06;;;;;;;12.33;6.03;;;;;;;-11.56;83.62;100998.80;1720086;83;21057;-74
2021/12/23 03:02:32;;;;;;;10.80;6.03;;;;;;;-11.66;83.68;101002.41;1720059;83;21472;-75
2021/12/23 03:04:58;;;;;;;13.83;6.47;;;;;;;-11.77;83.62;101000.42;1720339;83;21111;-72
2021/12/23 03:07:25;;;;;;;10.93;5.57;;;;;;;-11.86;83.74;100998.14;1719745;81;20998;-73
2021/12/23 03:09:52;;;;;;;14.00;6.10;;;;;;;-11.92;84.10;101009.58;1719826;83;21100;-77
2021/12/23 03:12:18;;;;;;;13.67;6.23;;;;;;;-11.98;84.49;101005.35;1719677;83;21045;-77
2021/12/23 03:14:46;;;;;;;15.03;6.80;;;;;;;-12.05;84.74;101005.36;1720240;83;21551;-76
2021/12/23 03:17:12;;;;;;;10.40;5.13;;;;;;;-12.11;84.82;101000.73;1720283;83;22367;-79
2021/12/23 03:19:39;;;;;;;12.77;5.97;;;;;;;-12.18;85.33;100997.28;1720333;83;21022;-78
2021/12/23 03:22:06;;;;;;;16.93;6.93;;;;;;;-12.18;86.51;100989.67;1719902;83;21148;-76
2021/12/23 03:24:33;;;;;;;15.07;7.40;;;;;;;-12.21;86.92;100999.63;1720286;83;21151;-79
2021/12/23 03:26:59;;;;;;;13.50;6.80;;;;;;;-12.27;87.05;101002.61;1720325;82;21092;-79
2021/12/23 03:29:26;;;;;;;14.63;6.80;;;;;;;-12.31;87.03;100999.77;1720126;83;21294;-78
2021/12/23 03:31:52;;;;;;;13.10;6.23;;;;;;;-12.36;87.04;101001.11;1719934;83;21560;-78
2021/12/23 03:34:19;;;;;;;14.37;6.40;;;;;;;-12.39;87.28;100998.38;1720269;83;21061;-78
2021/12/23 03:36:46;;;;;;;12.70;7.07;;;;;;;-12.42;87.36;101003.22;1722767;81;21031;-77
2021/12/23 03:39:12;;;;;;;19.23;7.27;;;;;;;-12.46;87.40;101009.77;1722789;83;21064;-75
2021/12/23 03:41:41;;;;;;;14.73;7.53;;;;;;;-12.48;87.78;101004.57;1720628;83;21033;-78
2021/12/23 03:44:08;;;;;;;17.33;7.30;;;;;;;-12.48;88.01;101003.70;1720458;83;21084;-78
2021/12/23 03:46:37;;;;;;;15.07;7.73;;;;;;;-12.48;88.45;101005.84;1720056;83;21066;-78
2021/12/23 03:49:06;;;;;;;12.00;6.37;;;;;;;-12.44;89.14;101006.95;1720341;83;21018;-78
2021/12/23 03:51:32;;;;;;;14.87;6.70;;;;;;;-12.39;89.49;101009.80;1720168;83;21135;-78
2021/12/23 03:53:59;;;;;;;12.20;6.60;;;;;;;-12.33;90.89;101010.20;1720218;83;21109;-78
2021/12/23 03:56:26;;;;;;;12.67;5.93;;;;;;;-12.27;91.36;101016.97;1724555;82;21255;-80
2021/12/23 03:58:54;;;;;;;11.20;5.50;;;;;;;-12.21;91.73;101019.94;1750005;82;21045;-80
2021/12/23 04:01:23;;;;;;;10.67;5.60;;;;;;;-12.17;92.27;101014.27;1746484;82;21057;-79
2021/12/23 04:03:53;;;;;;;13.73;6.33;;;;;;;-12.10;93.43;101013.94;1713838;83;21630;-81
2021/12/23 04:06:21;;;;;;;15.70;7.17;;;;;;;-12.01;94.64;101017.85;1713862;82;21055;-79
2021/12/23 04:08:48;;;;;;;15.63;7.47;;;;;;;-11.92;95.14;101021.02;1714023;83;21574;-81
2021/12/23 04:11:15;;;;;;;13.23;6.80;;;;;;;-11.88;94.99;101022.98;1713602;83;21055;-75
2021/12/23 04:13:43;;;;;;;11.43;6.13;;;;;;;-11.86;94.90;101017.59;1713917;83;21027;-75
2021/12/23 04:16:10;;;;;;;17.13;7.63;;;;;;;-11.85;95.04;101020.61;1713838;83;21150;-76
2021/12/23 04:18:36;;;;;;;12.33;6.30;;;;;;;-11.84;94.84;101020.72;1713763;83;21072;-75
2021/12/23 04:21:02;;;;;;;13.20;6.57;;;;;;;-11.82;94.99;101026.79;1714062;83;21039;-75
2021/12/23 04:23:30;;;;;;;17.80;8.23;;;;;;;-11.83;94.86;101027.55;1713728;83;21070;-75
2021/12/23 04:25:58;;;;;;;14.63;7.87;;;;;;;-11.82;95.01;101031.00;1714145;83;21106;-75
2021/12/23 04:28:25;;;;;;;10.73;5.70;;;;;;;-11.77;95.48;101033.45;1713735;83;21059;-74
2021/12/23 04:30:52;;;;;;;12.80;5.80;;;;;;;-11.73;95.61;101036.69;1714246;83;21653;-76
2021/12/23 04:33:19;;;;;;;15.07;7.67;;;;;;;-11.70;95.97;101041.97;1713986;83;21028;-76
2021/12/23 04:35:46;;;;;;;15.97;8.53;;;;;;;-11.65;96.33;101043.14;1714144;82;21079;-76
2021/12/23 04:38:12;;;;;;;16.83;8.03;;;;;;;-11.62;96.27;101031.02;1713739;83;21079;-75
2021/12/23 04:40:39;;;;;;;16.43;7.60;;;;;;;-11.61;96.25;101034.95;1724052;82;21650;-76
2021/12/23 04:43:09;;;;;;;13.50;6.70;;;;;;;-11.61;95.61;101037.49;1750075;82;21140;-75
2021/12/23 04:45:35;;;;;;;17.77;6.63;;;;;;;-11.59;95.78;101034.16;1749867;82;21060;-73
2021/12/23 04:48:02;;;;;;;19.43;7.90;;;;;;;-11.56;96.11;101031.44;1749847;82;21632;-73
2021/12/23 04:50:29;;;;;;;17.73;7.97;;;;;;;-11.54;95.81;101037.91;1749776;82;21084;-72
2021/12/23 04:52:56;;;;;;;22.43;9.13;;;;;;;-11.53;96.41;101039.66;1749769;82;21044;-76
2021/12/23 04:55:22;;;;;;;18.90;8.43;;;;;;;-11.53;95.72;101042.20;1745620;82;21140;-76
2021/12/23 04:57:49;;;;;;;14.43;7.70;;;;;;;-11.54;95.66;101034.09;1745289;82;21041;-72
2021/12/23 05:00:19;;;;;;;22.50;8.27;;;;;;;-11.56;95.95;101036.92;1745492;82;21065;-73
2021/12/23 05:02:46;;;;;;;;;;;;;;;-11.56;95.30;101036.92;1745504;81;21039;-69
2021/12/23 05:05:15;;;;;;;18.47;8.40;;;;;;;-11.56;95.28;101042.01;1745648;82;20202;-71
2021/12/23 05:07:41;;;;;;;21.33;9.13;;;;;;;-11.61;94.39;101040.03;1739311;80;21110;-70
2021/12/23 05:10:10;;;;;;;14.00;6.67;;;;;;;-11.64;94.13;101038.94;1746838;82;21093;-69
2021/12/23 05:12:42;;;;;;;18.47;9.20;;;;;;;-11.68;93.90;101045.89;1737733;82;21563;-68
2021/12/23 05:15:11;;;;;;;15.63;7.47;;;;;;;-11.77;93.22;101042.34;1737708;82;21700;-69
2021/12/23 05:17:38;;;;;;;15.10;8.07;;;;;;;-11.82;93.40;101045.84;1736155;82;21062;-67
2021/12/23 05:20:07;;;;;;;14.17;7.00;;;;;;;-11.86;93.08;101042.99;1735619;82;21131;-70
2021/12/23 05:22:35;;;;;;;17.02;7.92;;;;;;;-11.91;92.81;101052.88;1741089;82;20997;-71
2021/12/23 05:28:01;;;;;;;16.93;6.60;;;;;;;-11.98;92.63;101049.80;1852308;77;26470;-69
2021/12/23 05:30:27;;;;;;;13.43;7.20;;;;;;;-12.05;92.60;101054.48;1775851;80;21624;-71
2021/12/23 05:42:04;;;;;;;14.50;6.67;;;;;;;-12.23;93.45;101059.58;1721894;79;21127;-69
2021/12/23 05:44:32;;;;;;;11.73;7.33;;;;;;;-12.31;93.39;101070.45;1705900;82;21710;-69
2021/12/23 05:46:58;;;;;;;17.00;8.17;;;;;;;-12.49;93.34;101053.58;1708328;82;21142;-69
2021/12/23 05:49:26;;;;;;;21.60;8.37;;;;;;;-12.51;92.98;101071.63;1706859;83;21038;-68
2021/12/23 05:51:52;;;;;;;19.83;9.10;;;;;;;-12.62;92.36;101071.64;1708610;82;21109;-69
2021/12/23 05:54:19;;;;;;;24.17;10.07;;;;;;;-12.74;92.01;101075.47;1690361;84;21034;-70
2021/12/23 05:56:45;;;;;;;20.93;9.43;;;;;;;-12.85;91.97;101085.23;1690255;84;21038;-69
2021/12/23 05:59:12;;;;;;;31.13;11.50;;;;;;;-12.98;91.95;101080.52;1690655;84;21961;-71
2021/12/23 06:01:39;;;;;;;29.30;11.33;;;;;;;-13.08;91.86;101080.64;1690120;84;21118;-70
2021/12/23 06:04:05;;;;;;;36.37;11.67;;;;;;;-13.19;91.91;101083.66;1690119;84;21658;-70
2021/12/23 06:06:31;;;;;;;35.67;12.20;;;;;;;-13.29;92.18;101086.70;1686330;84;21082;-69
2021/12/23 06:08:58;;;;;;;31.63;12.80;;;;;;;-13.37;92.80;101084.48;1684608;85;21587;-69
2021/12/23 06:11:26;;;;;;;35.77;13.27;;;;;;;-13.41;93.49;101085.05;1683826;85;21576;-70
2021/12/23 06:13:53;;;;;;;39.60;16.63;;;;;;;-13.38;95.34;101085.66;1684580;85;21077;-69
2021/12/23 06:16:19;;;;;;;51.17;19.30;;;;;;;-13.27;98.54;101097.84;1685207;85;21097;-69
2021/12/23 06:18:48;;;;;;;44.80;16.47;;;;;;;-13.17;100.00;101090.12;1684990;84;21073;-70
2021/12/23 06:21:15;;;;;;;69.60;30.27;;;;;;;-13.11;100.00;101094.37;1653173;84;21152;-68
2021/12/23 06:23:41;;;;;;;55.87;23.07;;;;;;;-13.04;100.00;101094.41;1684494;85;21453;-69
2021/12/23 06:26:09;;;;;;;46.13;18.37;;;;;;;-13.02;100.00;101098.85;1684778;85;21114;-68
2021/12/23 06:28:36;;;;;;;36.23;12.07;;;;;;;-12.95;100.00;101103.59;1683867;84;21072;-68
2021/12/23 06:31:03;;;;;;;30.93;14.50;;;;;;;-12.84;100.00;101106.88;1685063;85;21066;-68
2021/12/23 06:33:30;;;;;;;23.93;11.43;;;;;;;-12.75;100.00;101093.59;1684386;85;21041;-70
2021/12/23 06:35:56;;;;;;;26.90;12.80;;;;;;;-12.67;100.00;101095.42;1684297;85;21153;-70
2021/12/23 06:38:23;;;;;;;33.03;13.43;;;;;;;-12.56;100.00;101093.27;1684645;85;21614;-69
2021/12/23 06:40:50;;;;;;;29.30;15.03;;;;;;;-12.43;100.00;101091.18;1684821;85;21619;-69
2021/12/23 06:43:17;;;;;;;34.50;19.70;;;;;;;-12.31;100.00;101091.16;1679555;84;21161;-69
2021/12/23 06:45:44;;;;;;;31.43;17.07;;;;;;;-12.14;100.00;101089.41;1675421;85;21074;-69
2021/12/23 06:48:11;;;;;;;26.57;12.47;;;;;;;-12.02;100.00;101083.02;1675882;85;21121;-71
2021/12/23 06:50:38;;;;;;;25.43;11.47;;;;;;;-11.94;100.00;101087.34;1671105;85;21714;-69
2021/12/23 06:53:04;;;;;;;25.53;11.77;;;;;;;-11.89;100.00;101090.70;1675382;84;21324;-70
2021/12/23 06:55:31;;;;;;;52.03;15.47;;;;;;;-11.86;100.00;101084.91;1669288;85;21082;-70
2021/12/23 06:57:57;;;;;;;34.27;15.53;;;;;;;-11.79;99.98;101092.17;1736462;82;21552;-71
2021/12/23 07:00:27;;;;;;;29.93;11.97;;;;;;;-11.72;99.67;101089.26;1736377;82;21781;-71
2021/12/23 07:02:55;;;;;;;21.73;9.80;;;;;;;-11.64;98.65;101095.75;1735130;82;21030;-70
2021/12/23 07:05:22;;;;;;;23.57;9.67;;;;;;;-11.64;96.82;101097.02;1736360;82;21112;-69
2021/12/23 07:07:55;;;;;;;21.50;10.53;;;;;;;-11.63;95.45;101088.61;1734798;82;21662;-69
2021/12/23 07:10:27;;;;;;;21.03;9.97;;;;;;;-11.62;95.18;101086.58;1729327;82;21085;-70
2021/12/23 07:12:55;;;;;;;25.47;10.10;;;;;;;-11.58;94.91;101086.77;1734719;82;21111;-69
2021/12/23 07:15:24;;;;;;;25.43;11.47;;;;;;;-11.49;95.00;101091.20;1736253;82;21061;-70
2021/12/23 07:17:53;;;;;;;28.07;12.60;;;;;;;-11.01;95.98;101081.20;1734276;82;21595;-70
2021/12/23 07:20:19;;;;;;;33.70;14.57;;;;;;;-10.33;96.83;101081.23;1736472;82;21085;-70
2021/12/23 07:22:47;;;;;;;32.97;14.43;;;;;;;-9.64;92.33;101077.73;1734959;82;21061;-70
2021/12/23 07:25:15;;;;;;;33.17;13.67;;;;;;;-8.93;91.27;101071.60;1732991;82;21123;-71
2021/12/23 07:27:42;;;;;;;31.47;13.17;;;;;;;-8.17;85.66;101066.34;1731892;82;21093;-70
2021/12/23 07:30:12;;;;;;;31.27;13.60;;;;;;;-7.46;85.08;101056.41;1736437;82;22341;-72
2021/12/23 07:32:38;;;;;;;26.63;12.90;;;;;;;-6.70;79.28;101060.95;1736518;82;21575;-69
2021/12/23 07:35:07;;;;;;;22.27;12.50;;;;;;;-6.00;73.79;101062.47;1736702;82;21140;-71
2021/12/23 07:37:33;;;;;;;24.50;11.20;;;;;;;-5.36;73.16;101065.23;1733840;82;21097;-70
2021/12/23 07:40:00;;;;;;;22.63;12.63;;;;;;;-4.76;71.16;101057.80;1684710;82;21053;-72
2021/12/23 07:42:29;;;;;;;20.72;11.83;;;;;;;-4.24;68.47;101052.11;1733035;82;21116;-71
2021/12/23 07:44:55;;;;;;;22.17;11.38;;;;;;;-4.04;66.36;101057.58;1724973;83;21129;-70
2021/12/23 07:47:23;;;;;;;20.30;10.10;;;;;;;-4.04;63.29;101052.44;1726607;82;21583;-73
2021/12/23 07:49:49;;;;;;;17.23;9.90;;;;;;;-4.34;60.64;101059.02;1726282;82;21781;-71
2021/12/23 07:52:16;;;;;;;20.70;10.08;;;;;;;-4.49;60.02;101051.58;1726989;82;21034;-70
2021/12/23 07:54:42;;;;;;;19.30;10.03;;;;;;;-4.70;59.98;101057.63;1730815;82;21141;-70
2021/12/23 07:57:09;;;;;;;13.70;9.13;;;;;;;-4.96;60.28;101059.17;1741330;82;21084;-72
2021/12/23 07:59:35;;;;;;;19.50;9.00;;;;;;;-5.33;59.56;101067.92;1708377;82;21620;-71
2021/12/23 08:02:03;;;;;;;16.10;9.08;;;;;;;-5.40;60.51;101059.50;1696338;84;21202;-71
2021/12/23 08:04:30;;;;;;;15.90;8.75;;;;;;;-5.39;61.30;101058.67;1715908;82;21065;-73
2021/12/23 08:06:58;;;;;;;15.08;8.38;;;;;;;-5.44;60.53;101056.31;1727094;82;21053;-70
2021/12/23 08:09:25;;;;;;;17.67;9.88;;;;;;;-5.40;59.87;101064.63;1726984;83;21058;-70
2021/12/23 08:11:52;;;;;;;20.92;10.88;;;;;;;-5.07;60.36;101062.98;1723073;83;21042;-71
2021/12/23 08:14:18;;;;;;;21.25;11.65;;;;;;;-4.80;59.21;101058.52;1719357;82;21123;-70
2021/12/23 08:16:47;;;;;;;22.15;10.35;;;;;;;-4.19;59.31;101051.86;1725325;82;21074;-70
2021/12/23 08:19:13;;;;;;;20.40;10.65;;;;;;;-3.57;57.52;101050.23;1726454;82;21034;-70
2021/12/23 08:21:41;;;;;;;21.65;10.30;;;;;;;-3.63;53.15;101047.91;1720817;83;21050;-70
2021/12/23 08:24:08;;;;;;;19.60;10.58;;;;;;;-4.01;53.39;101044.82;1713725;83;21065;-69
2021/12/23 08:26:41;;;;;;;20.37;11.60;;;;;;;-4.55;53.57;101041.95;1713388;83;21142;-70
2021/12/23 08:29:04;;;;;;;22.02;12.05;;;;;;;-5.23;54.77;101045.20;1719037;82;21085;-69
2021/12/23 08:31:30;;;;;;;20.55;11.35;;;;;;;-5.66;57.35;101048.50;1719977;83;21444;-69
2021/12/23 08:33:57;;;;;;;26.12;12.60;;;;;;;-5.85;58.52;101041.30;1717572;82;21066;-70
2021/12/23 08:36:24;;;;;;;23.25;12.03;;;;;;;-6.06;58.26;101040.39;1717463;82;21659;-70
2021/12/23 08:38:51;;;;;;;22.52;11.20;;;;;;;-6.30;59.08;101039.77;1718347;83;21134;-69
2021/12/23 08:41:18;;;;;;;21.97;10.63;;;;;;;-6.55;59.75;101038.62;1709068;83;21070;-73
2021/12/23 08:43:44;;;;;;;23.17;11.80;;;;;;;-6.36;61.61;101026.66;1714814;82;22112;-68
2021/12/23 08:46:12;;;;;;;20.30;9.83;;;;;;;-5.61;61.92;101025.20;1727324;82;21313;-70
2021/12/23 08:48:38;;;;;;;19.20;9.93;;;;;;;-4.88;60.97;101017.97;1733688;82;21109;-69
2021/12/23 08:51:05;;;;;;;21.75;10.58;;;;;;;-4.23;58.04;101012.72;1731502;82;21139;-70
2021/12/23 08:53:32;;;;;;;33.65;13.13;;;;;;;-4.11;56.42;101004.58;1722958;82;21359;-69
2021/12/23 09:05:00;;;;;;;23.20;10.25;;;;;;;-3.80;51.55;101000.09;1686521;83;21124;-70
2021/12/23 09:07:26;;;;;;;23.35;11.38;;;;;;;-4.30;52.82;100997.85;1678580;84;21079;-70
2021/12/23 09:09:53;;;;;;;28.87;13.13;;;;;;;-4.70;54.32;101000.22;1678079;84;21112;-69
2021/12/23 09:12:19;;;;;;;23.70;13.15;;;;;;;-4.88;54.95;100997.80;1669686;84;21067;-69
2021/12/23 09:14:46;;;;;;;20.55;10.53;;;;;;;-5.07;54.84;100994.92;1670236;84;21080;-70
2021/12/23 09:17:13;;;;;;;22.60;11.75;;;;;;;-5.30;55.68;100992.70;1667740;84;21105;-69
2021/12/23 09:19:41;;;;;;;24.57;12.85;;;;;;;-5.49;55.72;100993.65;1658922;84;21065;-70
2021/12/23 09:22:08;;;;;;;22.27;12.75;;;;;;;-5.20;55.78;100987.53;1674578;84;21132;-70
2021/12/23 09:24:38;;;;;;;23.05;12.43;;;;;;;-4.70;57.62;100977.95;1684904;84;21064;-70
2021/12/23 09:27:56;;;;;;;25.88;13.45;;;;;;;-3.85;55.49;100964.32;1642576;84;21638;-70
2021/12/23 09:35:01;;;;;;;25.75;11.93;;;;;;;-1.11;50.00;100944.32;1661597;86;21160;-71
2021/12/23 09:37:28;;;;;;;23.80;13.05;;;;;;;-0.29;49.13;100945.69;1685918;84;21371;-70
2021/12/23 09:39:57;;;;;;;23.38;13.38;;;;;;;0.32;48.70;100939.91;1676290;84;21057;-71
2021/12/23 09:42:30;;;;;;;26.55;14.35;;;;;;;0.90;47.32;100939.59;1668113;84;21103;-70
2021/12/23 09:45:03;;;;;;;29.72;16.12;;;;;;;1.22;43.82;100937.47;1682653;84;21313;-71
2021/12/23 09:47:34;;;;;;;32.45;17.17;;;;;;;1.30;41.31;100942.76;1674812;84;21636;-70
2021/12/23 09:50:05;;;;;;;28.17;16.87;;;;;;;0.89;39.21;100931.34;1674881;85;21082;-70
2021/12/23 09:52:34;;;;;;;30.85;16.35;;;;;;;0.81;41.32;100922.60;1673286;84;21135;-69
2021/12/23 09:55:03;;;;;;;33.20;18.55;;;;;;;0.82;40.98;100923.03;1689637;84;22235;-70
2021/12/23 09:57:30;;;;;;;34.45;17.75;;;;;;;0.89;39.92;100914.49;1683982;84;21001;-69
2021/12/23 09:59:58;;;;;;;36.88;18.70;;;;;;;0.97;39.49;100905.55;1677531;84;21053;-69
2021/12/23 10:02:25;;;;;;;35.03;18.50;;;;;;;1.08;40.28;100890.12;1682772;84;21140;-71
2021/12/23 10:04:51;;;;;;;34.63;16.75;;;;;;;1.17;40.48;100895.00;1689233;84;21603;-69
2021/12/23 10:07:18;;;;;;;37.35;18.87;;;;;;;0.81;38.12;100895.38;1688693;84;21916;-70
2021/12/23 10:10:00;;;;;;;34.95;16.95;;;;;;;0.31;40.22;100891.55;1689667;84;21045;-69
2021/12/23 10:31:43;;;;;;;39.25;18.73;;;;;;;-0.31;41.90;100870.14;1676889;84;21092;-69
2021/12/23 10:39:43;;;;;;;35.78;19.12;;;;;;;-0.03;40.79;100858.57;1680418;84;21075;-72
2021/12/23 10:42:14;;;;;;;35.67;18.50;;;;;;;0.14;40.68;100858.45;1654018;86;21156;-71
2021/12/23 10:44:55;;;;;;;36.05;18.32;;;;;;;-0.12;40.04;100858.41;1617205;88;21690;-71
2021/12/23 10:47:35;;;;;;;37.15;18.67;;;;;;;-0.53;40.28;100856.80;1616905;88;21155;-72
2021/12/23 10:50:35;;;;;;;41.35;18.95;;;;;;;-1.13;40.96;100847.80;1616965;88;21583;-71
2021/12/23 10:53:08;;;;;;;38.08;18.82;;;;;;;-1.66;42.38;100851.28;1613561;88;21097;-70
2021/12/23 10:58:20;;;;;;;40.52;19.15;;;;;;;-2.11;43.90;100838.56;1656181;86;21098;-71
2021/12/23 11:00:51;;;;;;;34.88;17.98;;;;;;;-2.00;43.83;100840.14;1644933;85;21610;-70
2021/12/23 11:03:39;;;;;;;38.98;17.92;;;;;;;-1.78;43.27;100839.38;1648681;86;21149;-70
2021/12/23 11:06:20;;;;;;;33.55;16.12;;;;;;;-1.65;43.21;100833.67;1649551;86;21559;-71
2021/12/23 11:08:50;;;;;;;39.23;19.32;;;;;;;-1.80;42.86;100832.00;1640478;86;22414;-70
2021/12/23 11:11:38;;;;;;;;;;;;;;;-1.74;43.75;100829.58;1644023;86;21133;-71
2021/12/23 11:42:13;;;;;;;44.35;21.30;;;;;;;-1.88;47.62;100798.69;1579253;87;21207;-70
2021/12/23 11:44:33;;;;;;;37.48;18.80;;;;;;;-1.79;46.55;100802.78;1622665;87;21635;-69
2021/12/23 11:47:08;;;;;;;42.75;19.85;;;;;;;-1.69;48.04;100796.98;1656160;85;21133;-68
2021/12/23 11:49:31;;;;;;;45.10;21.10;;;;;;;-1.76;46.28;100798.97;1646141;86;21299;-68
2021/12/23 11:51:58;;;;;;;44.45;19.25;;;;;;;-2.04;47.48;100800.89;1644362;87;21140;-70
2021/12/23 11:54:31;;;;;;;47.43;19.82;;;;;;;-2.30;48.10;100795.08;1636000;87;21807;-68
2021/12/23 11:57:16;;;;;;;48.90;20.82;;;;;;;-2.72;47.54;100799.95;1625178;88;21355;-69
2021/12/23 12:00:17;;;;;;;42.55;19.42;;;;;;;-3.22;48.23;100780.92;1644803;86;21060;-68
2021/12/23 12:02:36;;;;;;;40.60;17.90;;;;;;;-3.21;50.37;100798.14;1642020;85;21052;-68
2021/12/23 12:05:09;;;;;;;37.30;19.07;;;;;;;-3.05;49.04;100790.45;1639367;86;21089;-69
2021/12/23 12:07:39;;;;;;;42.62;17.10;;;;;;;-3.21;50.65;100800.30;1639166;87;21096;-69
2021/12/23 12:10:12;;;;;;;41.25;18.57;;;;;;;-3.55;49.92;100800.11;1614180;87;21088;-68
2021/12/23 12:13:01;;;;;;;35.70;17.42;;;;;;;-3.77;51.10;100795.59;1627913;87;21086;-69
2021/12/23 12:15:47;;;;;;;33.23;15.90;;;;;;;-3.65;50.69;100794.68;1623988;87;21571;-69
2021/12/23 12:18:23;;;;;;;39.40;16.70;;;;;;;-3.49;50.25;100795.16;1646246;87;21079;-69
2021/12/23 12:20:56;;;;;;;37.15;17.07;;;;;;;-3.33;51.34;100788.35;1620148;87;22234;-69
2021/12/23 12:23:31;;;;;;;;;;;;;;;-3.26;52.34;100782.55;1641732;87;21136;-68
2021/12/23 12:26:01;;;;;;;;;;;;;;;-3.18;52.29;100777.19;1647716;87;20207;-69
2021/12/23 12:28:30;;;;;;;;;;;;;;;-2.88;51.62;100773.73;1648785;87;20354;-69
2021/12/23 12:31:09;;;;;;;;;;;;;;;-2.46;50.05;100772.27;1642135;85;20695;-69
2021/12/23 12:33:41;;;;;;;;;;;;;;;-2.48;48.79;100774.83;1640265;87;21168;-78
2021/12/23 12:36:15;;;;;;;;;;;;;;;-2.88;49.10;100776.31;1615520;88;20181;-69
2021/12/23 12:38:48;;;;;;;;;;;;;;;-3.24;49.16;100782.19;1627534;87;20489;-70
2021/12/23 12:41:26;;;;;;;;;;;;;;;-3.41;50.40;100785.95;1632690;87;20207;-71
2021/12/23 12:44:04;;;;;;;;;;;;;;;-3.29;51.76;100779.89;1627137;87;20234;-68
2021/12/23 12:46:42;;;;;;;;;;;;;;;-3.11;51.61;100774.80;1635188;87;21082;-72
2021/12/23 12:49:26;;;;;;;;;;;;;;;-3.16;52.60;100780.69;1619426;87;20192;-70